Time;durP1;ratioP1;P1;durP2;ratioP2;P2;SDS_P1;SDS_P2;PMS_P1;PMS_P2;Temp;Humidity;BMP_temperature;BMP_pressure;BME280_temperature;BME280_humidity;BME280_pressure;Samples;Min_cycle;Max_cycle;Signal;HPM_P1;HPM_P2
2023/04/28 00:00:18;;;;;;;8.47;4.00;;;;;;;;;;5041873;28;20577;-82
2023/04/28 00:02:46;;;;;;;4.63;2.90;;;;;;;;;;5042027;28;20416;-81
2023/04/28 00:05:13;;;;;;;5.93;3.53;;;;;;;;;;5026193;28;20967;-81
2023/04/28 00:07:39;;;;;;;8.20;4.10;;;;;;;;;;5059903;28;20404;-81
2023/04/28 00:10:05;;;;;;;4.37;3.80;;;;;;;;;;5060463;28;20459;-81
2023/04/28 00:12:31;;;;;;;3.90;3.23;;;;;;;;;;5042698;28;20410;-82
2023/04/28 00:14:57;;;;;;;5.33;3.07;;;;;;;;;;5043000;28;20419;-81
2023/04/28 00:17:23;;;;;;;13.00;4.23;;;;;;;;;;5042248;28;20888;-81
2023/04/28 00:19:50;;;;;;;9.67;4.10;;;;;;;;;;5025353;28;20423;-81
2023/04/28 00:22:16;;;;;;;4.90;3.50;;;;;;;;;;5042097;28;20419;-81
2023/04/28 00:24:42;;;;;;;4.70;3.30;;;;;;;;;;5041851;28;20459;-81
2023/04/28 00:27:08;;;;;;;6.27;3.70;;;;;;;;;;5059955;28;20796;-81
2023/04/28 00:29:34;;;;;;;6.50;3.80;;;;;;;;;;5042044;28;20751;-80
2023/04/28 00:32:00;;;;;;;4.27;3.20;;;;;;;;;;5025881;28;20511;-79
2023/04/28 00:34:26;;;;;;;5.00;3.53;;;;;;;;;;5042197;28;20480;-80
2023/04/28 00:36:52;;;;;;;5.70;4.00;;;;;;;;;;5041845;28;20904;-80
2023/04/28 00:39:18;;;;;;;6.53;3.57;;;;;;;;;;5060167;28;20407;-80
2023/04/28 00:41:43;;;;;;;5.00;4.20;;;;;;;;;;5041968;28;20407;-81
2023/04/28 00:44:09;;;;;;;6.40;4.00;;;;;;;;;;5059731;28;20967;-81
2023/04/28 00:46:35;;;;;;;5.40;3.83;;;;;;;;;;5040782;28;20769;-81
2023/04/28 00:49:03;;;;;;;6.23;3.87;;;;;;;;;;5060115;28;20412;-81
2023/04/28 00:51:29;;;;;;;5.43;4.17;;;;;;;;;;5056448;28;20415;-81
2023/04/28 00:53:56;;;;;;;7.80;5.63;;;;;;;;;;5039242;28;20424;-81
2023/04/28 00:56:22;;;;;;;8.63;4.20;;;;;;;;;;5022141;28;20842;-82
2023/04/28 00:58:48;;;;;;;8.70;3.90;;;;;;;;;;5038450;28;20491;-82
2023/04/28 01:01:14;;;;;;;7.38;4.07;;;;;;;;;;5056886;28;20908;-82
2023/04/28 01:03:40;;;;;;;7.67;4.47;;;;;;;;;;5021580;28;20232;-83
2023/04/28 01:06:07;;;;;;;6.95;4.55;;;;;;;;;;5056236;28;20558;-82
2023/04/28 01:08:35;;;;;;;7.28;4.53;;;;;;;;;;5055755;28;20192;-82
2023/04/28 01:11:01;;;;;;;5.87;4.43;;;;;;;;;;5038256;28;20174;-82
2023/04/28 01:13:27;;;;;;;5.87;4.43;;;;;;;;;;5021792;28;20416;-82
2023/04/28 01:15:53;;;;;;;10.07;4.80;;;;;;;;;;5038154;28;20782;-82
2023/04/28 01:18:19;;;;;;;9.93;5.07;;;;;;;;;;5055960;28;20181;-82
2023/04/28 01:20:45;;;;;;;6.60;5.13;;;;;;;;;;5038157;28;20419;-82
2023/04/28 01:23:12;;;;;;;7.70;5.40;;;;;;;;;;5038147;28;20412;-82
2023/04/28 01:25:38;;;;;;;8.35;5.65;;;;;;;;;;5055359;28;20452;-82
2023/04/28 01:28:04;;;;;;;7.70;6.20;;;;;;;;;;5038375;28;20189;-82
2023/04/28 01:30:30;;;;;;;7.90;6.60;;;;;;;;;;5037581;28;20424;-82
2023/04/28 01:32:56;;;;;;;8.83;5.90;;;;;;;;;;5055829;28;20415;-82
2023/04/28 01:35:22;;;;;;;10.20;6.47;;;;;;;;;;5055893;28;20404;-82
2023/04/28 01:37:48;;;;;;;9.43;6.40;;;;;;;;;;5055817;28;20401;-82
2023/04/28 01:40:14;;;;;;;10.60;6.80;;;;;;;;;;5021473;28;20408;-82
2023/04/28 01:42:40;;;;;;;15.13;7.20;;;;;;;;;;5055250;28;20408;-82
2023/04/28 01:45:06;;;;;;;7.77;6.87;;;;;;;;;;5037332;28;20478;-82
2023/04/28 01:47:32;;;;;;;10.70;6.82;;;;;;;;;;5037477;28;20573;-82
2023/04/28 01:49:58;;;;;;;10.27;6.45;;;;;;;;;;5021335;28;20185;-82
2023/04/28 01:52:26;;;;;;;7.82;6.60;;;;;;;;;;5037887;28;20598;-82
2023/04/28 01:57:36;;;;;;;9.23;7.67;;;;;;;;;;5055036;28;20375;-82
2023/04/28 02:00:03;;;;;;;9.23;7.00;;;;;;;;;;5037154;28;20518;-82
2023/04/28 02:02:30;;;;;;;11.00;7.75;;;;;;;;;;5055065;28;20491;-82
2023/04/28 02:04:56;;;;;;;13.83;8.53;;;;;;;;;;5036793;28;20205;-82
2023/04/28 02:07:23;;;;;;;11.63;7.97;;;;;;;;;;5055147;28;20757;-83
2023/04/28 02:09:49;;;;;;;13.10;8.50;;;;;;;;;;5036874;28;20909;-82
2023/04/28 02:12:16;;;;;;;11.70;7.73;;;;;;;;;;5020964;28;20431;-82
2023/04/28 02:14:42;;;;;;;8.88;7.60;;;;;;;;;;5020544;28;20435;-82
2023/04/28 02:17:08;;;;;;;11.80;8.40;;;;;;;;;;5054689;28;20177;-82
2023/04/28 02:19:34;;;;;;;13.63;8.20;;;;;;;;;;5020729;28;20412;-82
2023/04/28 02:22:00;;;;;;;10.70;7.60;;;;;;;;;;5021027;28;20958;-82
2023/04/28 02:24:26;;;;;;;9.90;8.13;;;;;;;;;;5054955;28;20197;-82
2023/04/28 02:26:52;;;;;;;9.90;7.10;;;;;;;;;;5036915;28;20498;-83
2023/04/28 02:29:18;;;;;;;9.70;8.55;;;;;;;;;;5054963;28;20173;-82
2023/04/28 02:31:45;;;;;;;10.40;8.25;;;;;;;;;;5054271;28;20174;-82
2023/04/28 02:34:11;;;;;;;8.38;7.55;;;;;;;;;;5036962;28;20300;-82
2023/04/28 02:36:37;;;;;;;12.47;8.57;;;;;;;;;;5020407;28;20614;-81
2023/04/28 02:39:03;;;;;;;10.90;7.37;;;;;;;;;;5054684;28;20405;-82
2023/04/28 02:41:30;;;;;;;14.05;8.38;;;;;;;;;;5054630;28;20447;-82
2023/04/28 02:43:56;;;;;;;10.25;7.85;;;;;;;;;;5036331;28;20967;-82
2023/04/28 02:46:21;;;;;;;10.23;8.45;;;;;;;;;;5036768;28;20552;-82
2023/04/28 02:48:47;;;;;;;9.90;8.90;;;;;;;;;;5036112;28;20174;-82
2023/04/28 02:51:13;;;;;;;13.70;9.47;;;;;;;;;;5054158;28;21030;-82
2023/04/28 02:53:39;;;;;;;14.43;8.60;;;;;;;;;;5054031;28;20495;-82
2023/04/28 02:56:06;;;;;;;12.75;10.55;;;;;;;;;;5036511;28;20542;-82
2023/04/28 02:58:32;;;;;;;13.70;9.23;;;;;;;;;;5053153;28;20189;-82
2023/04/28 03:00:58;;;;;;;13.80;8.87;;;;;;;;;;5035996;28;20520;-82
2023/04/28 03:03:24;;;;;;;16.73;11.70;;;;;;;;;;5020201;28;20416;-81
2023/04/28 03:05:50;;;;;;;15.25;11.85;;;;;;;;;;5052623;28;20540;-82
2023/04/28 03:08:16;;;;;;;16.95;11.35;;;;;;;;;;5052767;28;20264;-81
2023/04/28 03:10:42;;;;;;;17.23;11.98;;;;;;;;;;5053400;28;20173;-82
2023/04/28 03:13:08;;;;;;;14.30;10.43;;;;;;;;;;5053695;28;20261;-82
2023/04/28 03:15:34;;;;;;;17.10;10.90;;;;;;;;;;5052061;28;20788;-82
2023/04/28 03:18:00;;;;;;;13.60;10.35;;;;;;;;;;5053925;28;20404;-82
2023/04/28 03:20:26;;;;;;;11.38;10.10;;;;;;;;;;5052588;28;20276;-82
2023/04/28 03:22:53;;;;;;;14.43;10.57;;;;;;;;;;5019467;28;20170;-82
2023/04/28 03:25:19;;;;;;;14.18;12.35;;;;;;;;;;5052536;28;20264;-81
2023/04/28 03:27:45;;;;;;;14.85;11.40;;;;;;;;;;5041952;28;20188;-81
2023/04/28 03:30:11;;;;;;;14.27;12.50;;;;;;;;;;5074383;28;20267;-81
2023/04/28 03:32:37;;;;;;;17.17;11.65;;;;;;;;;;5039671;28;20275;-82
2023/04/28 03:35:03;;;;;;;15.03;12.13;;;;;;;;;;5055842;28;20654;-82
2023/04/28 03:37:29;;;;;;;17.42;11.95;;;;;;;;;;5055886;28;20411;-82
2023/04/28 03:39:55;;;;;;;15.75;12.93;;;;;;;;;;5055486;28;20513;-82
2023/04/28 03:42:21;;;;;;;13.87;12.43;;;;;;;;;;5073786;28;20252;-84
2023/04/28 03:44:47;;;;;;;15.70;12.80;;;;;;;;;;5055233;28;20454;-86
2023/04/28 03:47:13;;;;;;;15.60;14.10;;;;;;;;;;5039412;28;20180;-86
2023/04/28 03:49:39;;;;;;;17.27;13.77;;;;;;;;;;5073295;28;20431;-85
2023/04/28 03:52:06;;;;;;;17.67;13.27;;;;;;;;;;5039397;28;20411;-86
2023/04/28 03:54:32;;;;;;;19.65;14.52;;;;;;;;;;5073449;28;20220;-87
2023/04/28 03:56:58;;;;;;;19.13;14.40;;;;;;;;;;5055259;28;20518;-87
2023/04/28 03:59:24;;;;;;;19.80;13.60;;;;;;;;;;5055455;28;20941;-86
2023/04/28 04:01:50;;;;;;;20.87;13.27;;;;;;;;;;5038800;28;20207;-86
2023/04/28 04:04:16;;;;;;;14.07;12.63;;;;;;;;;;5073389;28;20448;-87
2023/04/28 04:06:42;;;;;;;21.40;13.93;;;;;;;;;;5055300;28;20793;-86
2023/04/28 04:09:08;;;;;;;18.33;12.97;;;;;;;;;;5073195;28;20411;-86
2023/04/28 04:11:34;;;;;;;14.13;11.60;;;;;;;;;;5055408;28;20834;-86
2023/04/28 04:14:00;;;;;;;14.73;13.23;;;;;;;;;;5072847;28;20302;-86
2023/04/28 04:16:26;;;;;;;15.27;13.45;;;;;;;;;;5055473;28;20411;-86
2023/04/28 04:18:52;;;;;;;22.65;12.82;;;;;;;;;;5073090;28;20169;-86
2023/04/28 04:21:18;;;;;;;17.23;11.83;;;;;;;;;;5055658;28;20647;-86
2023/04/28 04:23:44;;;;;;;14.63;12.43;;;;;;;;;;5072792;28;20490;-85
2023/04/28 04:26:10;;;;;;;17.60;12.30;;;;;;;;;;5075310;28;20793;-86
2023/04/28 04:28:36;;;;;;;12.63;10.63;;;;;;;;;;5064346;28;20417;-86
2023/04/28 04:31:02;;;;;;;13.33;11.93;;;;;;;;;;5042365;28;20419;-86
2023/04/28 04:33:28;;;;;;;12.40;10.87;;;;;;;;;;5059021;28;20957;-86
2023/04/28 04:35:54;;;;;;;15.05;11.25;;;;;;;;;;5059094;28;20403;-85
2023/04/28 04:38:20;;;;;;;17.05;11.02;;;;;;;;;;5077378;28;20176;-86
2023/04/28 04:40:46;;;;;;;14.52;11.73;;;;;;;;;;5058748;28;20535;-85
2023/04/28 04:43:12;;;;;;;14.95;11.05;;;;;;;;;;5076716;28;20177;-86
2023/04/28 04:45:38;;;;;;;17.88;9.82;;;;;;;;;;5059004;28;20216;-85
2023/04/28 04:48:04;;;;;;;15.77;10.87;;;;;;;;;;5058609;28;20417;-86
2023/04/28 04:50:30;;;;;;;15.23;11.63;;;;;;;;;;5059104;28;20418;-85
2023/04/28 04:52:57;;;;;;;15.10;10.43;;;;;;;;;;5076466;28;20173;-86
2023/04/28 04:55:23;;;;;;;12.98;9.48;;;;;;;;;;5041702;28;20473;-86
2023/04/28 04:57:49;;;;;;;12.05;10.13;;;;;;;;;;5076242;28;20231;-85
2023/04/28 05:00:15;;;;;;;17.08;10.93;;;;;;;;;;5043410;28;20189;-86
2023/04/28 05:02:42;;;;;;;15.52;10.50;;;;;;;;;;5096641;28;20493;-85
2023/04/28 05:05:08;;;;;;;12.45;10.82;;;;;;;;;;5096482;28;20196;-86
2023/04/28 05:07:34;;;;;;;14.63;10.63;;;;;;;;;;5078315;28;20184;-85
2023/04/28 05:10:00;;;;;;;11.48;9.77;;;;;;;;;;5096384;28;20168;-85
2023/04/28 05:12:26;;;;;;;14.38;10.38;;;;;;;;;;5061611;28;20184;-85
2023/04/28 05:14:52;;;;;;;18.10;10.10;;;;;;;;;;5096188;28;20523;-84
2023/04/28 05:17:18;;;;;;;14.63;10.20;;;;;;;;;;5078154;28;20414;-84
2023/04/28 05:19:44;;;;;;;12.00;9.60;;;;;;;;;;5078362;28;20405;-84
2023/04/28 05:22:11;;;;;;;15.85;11.50;;;;;;;;;;5078418;28;20413;-84
2023/04/28 05:24:37;;;;;;;12.40;10.60;;;;;;;;;;5061375;28;20211;-84
2023/04/28 05:27:03;;;;;;;16.60;12.68;;;;;;;;;;5060946;28;20250;-84
2023/04/28 05:29:29;;;;;;;15.35;11.85;;;;;;;;;;5061205;28;20673;-84
2023/04/28 05:31:55;;;;;;;17.73;12.70;;;;;;;;;;5077692;28;20272;-84
2023/04/28 05:34:21;;;;;;;16.75;12.77;;;;;;;;;;5077871;28;20418;-84
2023/04/28 05:36:47;;;;;;;16.05;13.50;;;;;;;;;;5076736;28;20655;-82
2023/04/28 05:39:13;;;;;;;14.65;13.02;;;;;;;;;;5096145;28;20180;-84
2023/04/28 05:41:39;;;;;;;15.00;13.07;;;;;;;;;;5095660;28;20172;-85
2023/04/28 05:44:05;;;;;;;15.63;13.10;;;;;;;;;;5095488;28;20169;-84
2023/04/28 05:46:31;;;;;;;21.23;14.10;;;;;;;;;;5077710;28;20210;-84
2023/04/28 05:48:57;;;;;;;18.00;14.10;;;;;;;;;;5095768;28;20452;-84
2023/04/28 05:51:23;;;;;;;18.90;14.07;;;;;;;;;;5077789;28;20172;-84
2023/04/28 05:53:49;;;;;;;16.83;13.40;;;;;;;;;;5077088;28;20415;-84
2023/04/28 05:56:15;;;;;;;19.60;12.37;;;;;;;;;;5096068;28;20269;-84
2023/04/28 06:35:22;;;;;;;19.55;12.75;;;;;;;;;;5095230;28;20402;-84
2023/04/28 06:37:48;;;;;;;18.48;12.43;;;;;;;;;;5060173;28;20188;-84
2023/04/28 06:40:14;;;;;;;19.63;12.33;;;;;;;;;;5094088;28;20271;-83
2023/04/28 06:42:40;;;;;;;16.63;12.93;;;;;;;;;;5076791;28;20494;-83
2023/04/28 06:45:06;;;;;;;14.43;12.27;;;;;;;;;;5094462;28;20445;-83
2023/04/28 06:47:32;;;;;;;18.60;12.02;;;;;;;;;;5060135;28;20414;-84
2023/04/28 06:50:00;;;;;;;17.95;13.05;;;;;;;;;;5094349;28;20172;-84
2023/04/28 06:52:28;;;;;;;17.50;11.50;;;;;;;;;;5076833;28;20199;-83
2023/04/28 06:54:54;;;;;;;14.03;11.97;;;;;;;;;;5095106;28;20462;-80
2023/04/28 06:57:20;;;;;;;13.80;10.53;;;;;;;;;;5078403;28;20413;-79
2023/04/28 06:59:46;;;;;;;16.40;11.70;;;;;;;;;;5070380;28;20806;-79
2023/04/28 07:02:12;;;;;;;14.73;10.97;;;;;;;;;;5043529;28;20473;-79
2023/04/28 07:04:38;;;;;;;19.00;9.90;;;;;;;;;;5075521;28;20458;-83
2023/04/28 07:07:07;;;;;;;12.47;9.00;;;;;;;;;;5047995;28;20412;-83
2023/04/28 07:09:34;;;;;;;12.37;10.20;;;;;;;;;;5036563;28;20404;-83
2023/04/28 07:12:00;;;;;;;14.77;8.93;;;;;;;;;;5035266;28;20441;-82
2023/04/28 07:14:26;;;;;;;13.27;9.23;;;;;;;;;;5018758;28;20420;-83
2023/04/28 07:16:52;;;;;;;13.50;9.30;;;;;;;;;;5035890;28;20981;-82
2023/04/28 07:19:18;;;;;;;11.40;9.70;;;;;;;;;;5035813;28;20511;-83
2023/04/28 07:21:44;;;;;;;15.33;8.33;;;;;;;;;;5053647;28;20414;-84
2023/04/28 07:24:10;;;;;;;10.47;8.73;;;;;;;;;;5035532;28;20416;-83
2023/04/28 07:26:36;;;;;;;12.00;8.97;;;;;;;;;;5053350;28;20869;-83
2023/04/28 07:29:02;;;;;;;10.63;8.53;;;;;;;;;;5019093;28;20482;-83
2023/04/28 07:31:28;;;;;;;11.00;8.13;;;;;;;;;;5035599;28;20510;-83
2023/04/28 07:33:55;;;;;;;12.07;8.50;;;;;;;;;;5019162;28;20498;-82
2023/04/28 07:36:21;;;;;;;11.00;8.40;;;;;;;;;;5037707;28;20501;-83
2023/04/28 07:38:47;;;;;;;9.17;8.07;;;;;;;;;;5036349;28;20405;-83
2023/04/28 07:41:13;;;;;;;8.73;7.93;;;;;;;;;;5035403;28;21323;-83
2023/04/28 07:43:40;;;;;;;9.17;6.77;;;;;;;;;;5053190;28;20415;-83
2023/04/28 07:46:07;;;;;;;7.47;6.40;;;;;;;;;;5019120;28;20463;-83
2023/04/28 07:48:33;;;;;;;9.43;7.47;;;;;;;;;;5035990;28;20420;-83
2023/04/28 07:50:59;;;;;;;9.27;7.27;;;;;;;;;;5019150;28;20416;-83
2023/04/28 07:53:25;;;;;;;10.13;6.97;;;;;;;;;;5019639;28;20442;-84
2023/04/28 07:55:51;;;;;;;11.80;7.23;;;;;;;;;;5020528;28;20963;-80
2023/04/28 07:58:17;;;;;;;12.23;7.77;;;;;;;;;;5054448;28;20543;-84
2023/04/28 08:00:43;;;;;;;9.77;7.00;;;;;;;;;;5020245;28;20481;-83
2023/04/28 08:03:09;;;;;;;8.57;6.30;;;;;;;;;;5056915;28;20451;-83
2023/04/28 08:05:35;;;;;;;10.97;6.90;;;;;;;;;;5039710;28;20566;-83
2023/04/28 08:08:01;;;;;;;8.47;6.70;;;;;;;;;;5039111;28;20502;-85
2023/04/28 08:10:27;;;;;;;10.10;7.10;;;;;;;;;;5039614;28;20508;-84
2023/04/28 08:12:54;;;;;;;8.97;7.20;;;;;;;;;;5057605;28;20404;-83
2023/04/28 08:15:20;;;;;;;9.50;7.13;;;;;;;;;;5022660;28;20409;-84
2023/04/28 08:17:46;;;;;;;10.33;7.20;;;;;;;;;;5022563;28;20426;-83
2023/04/28 08:20:14;;;;;;;8.30;6.70;;;;;;;;;;5056261;28;20387;-83
2023/04/28 08:22:40;;;;;;;10.37;8.00;;;;;;;;;;5039138;28;20899;-82
2023/04/28 08:25:07;;;;;;;9.47;6.47;;;;;;;;;;5022500;28;20562;-84
2023/04/28 08:27:33;;;;;;;14.80;8.23;;;;;;;;;;5022937;28;20566;-84
2023/04/28 08:29:59;;;;;;;8.67;7.33;;;;;;;;;;5021999;28;20428;-84
2023/04/28 08:32:25;;;;;;;9.10;6.93;;;;;;;;;;5057182;28;20408;-84
2023/04/28 08:34:51;;;;;;;13.03;7.00;;;;;;;;;;5049982;28;20416;-83
2023/04/28 08:37:17;;;;;;;12.73;7.80;;;;;;;;;;5065658;28;20426;-84
2023/04/28 08:39:43;;;;;;;8.23;7.43;;;;;;;;;;5058702;28;20403;-84
2023/04/28 08:42:09;;;;;;;8.03;7.23;;;;;;;;;;5042470;28;20418;-84
2023/04/28 08:44:39;;;;;;;8.63;7.60;;;;;;;;;;5058763;28;20470;-83
2023/04/28 08:47:14;;;;;;;8.90;7.17;;;;;;;;;;5058294;28;20446;-84
2023/04/28 08:49:40;;;;;;;8.30;7.27;;;;;;;;;;5076402;28;20362;-84
2023/04/28 08:52:11;;;;;;;8.90;7.00;;;;;;;;;;5058046;28;20385;-84
2023/04/28 08:54:38;;;;;;;8.00;7.20;;;;;;;;;;5060384;28;20469;-84
2023/04/28 08:57:04;;;;;;;17.70;7.67;;;;;;;;;;5060547;28;20794;-83
2023/04/28 08:59:30;;;;;;;11.67;7.23;;;;;;;;;;5058549;28;20415;-83
2023/04/28 09:01:57;;;;;;;9.13;8.23;;;;;;;;;;5058963;28;20445;-83
2023/04/28 09:04:23;;;;;;;9.50;7.63;;;;;;;;;;5058155;28;20415;-83
2023/04/28 09:06:49;;;;;;;12.07;8.83;;;;;;;;;;5076572;28;20762;-84
2023/04/28 09:09:19;;;;;;;12.63;9.03;;;;;;;;;;5041592;28;20422;-83
2023/04/28 09:11:50;;;;;;;9.13;8.10;;;;;;;;;;5057281;28;20412;-83
2023/04/28 09:14:16;;;;;;;11.77;9.07;;;;;;;;;;5075656;28;20751;-83
2023/04/28 09:16:42;;;;;;;10.60;8.93;;;;;;;;;;5058386;28;20421;-83
2023/04/28 09:19:08;;;;;;;13.50;10.33;;;;;;;;;;5041791;28;20915;-80
2023/04/28 09:21:45;;;;;;;11.67;9.60;;;;;;;;;;5058291;28;20485;-80
2023/04/28 09:24:11;;;;;;;11.00;9.30;;;;;;;;;;5058367;28;20389;-79
2023/04/28 09:26:49;;;;;;;9.30;8.50;;;;;;;;;;5058381;28;20398;-80
2023/04/28 09:29:15;;;;;;;12.90;9.50;;;;;;;;;;5058230;28;20396;-80
2023/04/28 09:31:42;;;;;;;10.73;9.73;;;;;;;;;;5041914;28;20506;-79
2023/04/28 09:34:09;;;;;;;9.57;8.60;;;;;;;;;;5058472;28;20802;-79
2023/04/28 09:36:35;;;;;;;13.33;8.97;;;;;;;;;;5058366;28;20415;-79
2023/04/28 09:39:01;;;;;;;11.17;9.93;;;;;;;;;;5041683;28;20393;-80
2023/04/28 09:41:39;;;;;;;10.50;9.50;;;;;;;;;;5076231;28;20399;-78
2023/04/28 09:44:11;;;;;;;10.70;9.67;;;;;;;;;;5075812;28;20498;-78
2023/04/28 09:46:37;;;;;;;11.80;10.30;;;;;;;;;;5058618;28;20438;-78
2023/04/28 09:49:03;;;;;;;13.40;11.70;;;;;;;;;;5057938;28;20400;-78
2023/04/28 09:51:29;;;;;;;12.67;11.37;;;;;;;;;;5075979;28;20508;-78
2023/04/28 09:53:58;;;;;;;13.57;12.10;;;;;;;;;;5057877;28;20385;-78
2023/04/28 09:56:24;;;;;;;12.30;11.03;;;;;;;;;;5076007;28;20459;-78
2023/04/28 09:58:51;;;;;;;11.90;10.70;;;;;;;;;;5057990;28;20397;-78
2023/04/28 10:01:17;;;;;;;13.10;11.77;;;;;;;;;;5057366;28;20407;-79
2023/04/28 10:03:43;;;;;;;13.53;10.93;;;;;;;;;;5057501;28;20452;-79
2023/04/28 10:06:09;;;;;;;10.87;9.73;;;;;;;;;;5075189;28;20454;-79
2023/04/28 10:08:35;;;;;;;12.87;11.67;;;;;;;;;;5075350;28;20418;-79
2023/04/28 10:11:01;;;;;;;13.40;9.90;;;;;;;;;;5075441;28;20402;-79
2023/04/28 10:13:28;;;;;;;12.60;9.33;;;;;;;;;;5075311;28;20417;-80
2023/04/28 10:15:54;;;;;;;11.37;10.10;;;;;;;;;;5057417;28;20393;-80
2023/04/28 10:18:21;;;;;;;14.60;9.33;;;;;;;;;;5074814;28;20370;-80
2023/04/28 10:20:49;;;;;;;10.80;8.50;;;;;;;;;;5075499;28;20779;-80
2023/04/28 10:23:21;;;;;;;10.13;9.00;;;;;;;;;;5075264;28;20769;-80
2023/04/28 10:25:48;;;;;;;7.77;7.07;;;;;;;;;;5075161;28;20428;-80
2023/04/28 10:28:15;;;;;;;7.67;6.53;;;;;;;;;;5059770;28;20411;-80
2023/04/28 10:30:41;;;;;;;6.13;5.53;;;;;;;;;;5074577;28;20407;-80
2023/04/28 10:33:12;;;;;;;5.50;4.93;;;;;;;;;;5074811;28;20414;-80
2023/04/28 10:35:39;;;;;;;7.10;5.23;;;;;;;;;;5057056;28;20455;-80
2023/04/28 10:38:07;;;;;;;5.37;4.83;;;;;;;;;;5074660;28;20411;-82
2023/04/28 10:40:43;;;;;;;5.33;4.87;;;;;;;;;;5075076;28;20378;-80
2023/04/28 10:43:10;;;;;;;5.13;4.63;;;;;;;;;;5074706;28;20381;-81
2023/04/28 10:45:48;;;;;;;5.23;4.73;;;;;;;;;;5057162;28;20831;-80
2023/04/28 10:48:15;;;;;;;5.57;5.10;;;;;;;;;;5057188;28;20427;-80
2023/04/28 10:51:00;;;;;;;6.17;5.57;;;;;;;;;;5057501;28;20524;-81
2023/04/28 10:53:44;;;;;;;5.37;4.97;;;;;;;;;;5056232;28;20407;-81
2023/04/28 10:56:11;;;;;;;5.73;5.27;;;;;;;;;;5074002;28;20469;-81
2023/04/28 10:58:41;;;;;;;6.00;5.50;;;;;;;;;;5057054;28;20426;-80
2023/04/28 11:01:19;;;;;;;5.40;5.00;;;;;;;;;;5040031;28;20522;-81
2023/04/28 11:03:58;;;;;;;5.63;5.13;;;;;;;;;;5056734;28;20424;-81
2023/04/28 11:06:26;;;;;;;6.20;5.60;;;;;;;;;;5056112;28;20545;-81
2023/04/28 11:08:56;;;;;;;5.13;4.73;;;;;;;;;;5074015;28;20775;-81
2023/04/28 11:11:29;;;;;;;8.00;7.30;;;;;;;;;;5055726;28;20418;-81
2023/04/28 11:14:14;;;;;;;5.63;5.13;;;;;;;;;;5056084;28;20415;-81
2023/04/28 11:17:00;;;;;;;5.43;5.03;;;;;;;;;;5056173;28;20445;-81
2023/04/28 11:19:27;;;;;;;6.23;5.50;;;;;;;;;;5056191;28;20733;-81
2023/04/28 11:21:55;;;;;;;5.73;5.27;;;;;;;;;;5056068;28;20419;-81
2023/04/28 11:24:21;;;;;;;5.70;5.30;;;;;;;;;;5055749;28;20456;-81
2023/04/28 11:26:47;;;;;;;5.40;5.00;;;;;;;;;;5056077;28;20426;-81
2023/04/28 11:29:14;;;;;;;5.23;4.83;;;;;;;;;;5073803;28;20400;-81
2023/04/28 11:31:43;;;;;;;6.27;4.33;;;;;;;;;;5040025;28;20413;-80
2023/04/28 11:34:15;;;;;;;4.40;4.00;;;;;;;;;;5056377;28;20752;-81
2023/04/28 11:36:41;;;;;;;4.07;3.77;;;;;;;;;;5056271;28;20738;-80
2023/04/28 11:39:08;;;;;;;6.80;4.30;;;;;;;;;;5055627;28;20411;-82
2023/04/28 11:41:39;;;;;;;4.37;3.93;;;;;;;;;;5056293;28;20411;-81
2023/04/28 11:44:12;;;;;;;4.00;3.70;;;;;;;;;;5055763;28;20410;-83
2023/04/28 11:46:54;;;;;;;4.03;3.40;;;;;;;;;;5055444;28;20482;-81
2023/04/28 11:49:21;;;;;;;3.50;3.30;;;;;;;;;;5055389;28;20415;-81
2023/04/28 11:51:48;;;;;;;3.53;3.23;;;;;;;;;;5055443;28;20446;-82
2023/04/28 11:54:19;;;;;;;4.20;3.90;;;;;;;;;;5053739;28;20753;-81
2023/04/28 11:56:45;;;;;;;3.27;3.00;;;;;;;;;;5035431;28;20431;-80
2023/04/28 11:59:12;;;;;;;3.93;3.00;;;;;;;;;;5019033;28;20440;-81
2023/04/28 12:01:44;;;;;;;3.07;2.87;;;;;;;;;;5035595;28;20908;-80
2023/04/28 12:04:11;;;;;;;3.77;3.47;;;;;;;;;;5035220;28;20499;-81
2023/04/28 12:06:37;;;;;;;3.30;2.83;;;;;;;;;;5019006;28;20970;-81
2023/04/28 12:09:14;;;;;;;3.63;3.33;;;;;;;;;;5019069;28;20455;-82
2023/04/28 12:11:51;;;;;;;3.00;2.70;;;;;;;;;;5053231;28;20442;-85
2023/04/28 12:14:17;;;;;;;3.93;3.27;;;;;;;;;;5052830;28;20434;-86
2023/04/28 12:16:43;;;;;;;2.97;2.70;;;;;;;;;;5018816;28;20416;-86
2023/04/28 12:19:10;;;;;;;2.53;2.33;;;;;;;;;;5052848;28;20439;-85
2023/04/28 12:21:37;;;;;;;3.13;2.93;;;;;;;;;;5019235;28;20423;-84
2023/04/28 12:24:17;;;;;;;3.03;2.80;;;;;;;;;;5035655;28;20390;-85
2023/04/28 12:26:43;;;;;;;2.97;2.77;;;;;;;;;;5053453;28;20438;-79
2023/04/28 12:29:09;;;;;;;3.33;3.07;;;;;;;;;;5019441;28;20435;-79
2023/04/28 12:31:51;;;;;;;4.83;2.63;;;;;;;;;;5053091;28;20419;-80
2023/04/28 12:34:18;;;;;;;3.13;2.40;;;;;;;;;;5035356;28;20440;-79
2023/04/28 12:36:45;;;;;;;2.07;1.97;;;;;;;;;;5053417;28;20382;-80
2023/04/28 12:39:18;;;;;;;3.50;2.50;;;;;;;;;;5035593;28;20404;-81
2023/04/28 12:41:45;;;;;;;2.90;2.70;;;;;;;;;;5053670;28;20522;-80
2023/04/28 12:44:11;;;;;;;3.33;2.43;;;;;;;;;;5053205;28;20400;-82
2023/04/28 12:46:37;;;;;;;2.17;2.07;;;;;;;;;;5036018;28;20494;-80
2023/04/28 12:49:04;;;;;;;2.60;2.40;;;;;;;;;;5038038;28;20529;-79
2023/04/28 12:51:30;;;;;;;2.40;2.20;;;;;;;;;;5056077;28;20911;-80
2023/04/28 12:53:56;;;;;;;3.53;3.20;;;;;;;;;;5022049;28;20902;-80
2023/04/28 12:56:22;;;;;;;3.70;3.40;;;;;;;;;;5040266;28;20481;-79
2023/04/28 12:58:48;;;;;;;2.70;2.50;;;;;;;;;;5058198;28;20419;-80
2023/04/28 13:01:14;;;;;;;2.83;2.63;;;;;;;;;;5057946;28;20427;-79
2023/04/28 13:03:42;;;;;;;3.20;3.00;;;;;;;;;;5076252;28;20768;-79
2023/04/28 13:06:09;;;;;;;3.30;2.70;;;;;;;;;;5057977;28;20470;-79
2023/04/28 13:08:35;;;;;;;3.03;2.73;;;;;;;;;;5075851;28;20407;-79
2023/04/28 13:11:04;;;;;;;2.57;2.37;;;;;;;;;;5058448;28;20902;-79
2023/04/28 13:13:30;;;;;;;3.20;2.40;;;;;;;;;;5058413;28;20400;-79
2023/04/28 13:15:56;;;;;;;3.10;2.77;;;;;;;;;;5041647;28;20430;-79
2023/04/28 13:18:23;;;;;;;3.57;3.10;;;;;;;;;;5075899;28;20403;-79
2023/04/28 13:20:49;;;;;;;3.30;3.10;;;;;;;;;;5058234;28;20419;-79
2023/04/28 13:23:15;;;;;;;3.37;3.13;;;;;;;;;;5041103;28;20419;-80
2023/04/28 13:25:41;;;;;;;2.97;2.77;;;;;;;;;;5041443;28;20565;-80
2023/04/28 13:28:07;;;;;;;3.07;2.87;;;;;;;;;;5041222;28;20506;-80
2023/04/28 13:30:33;;;;;;;3.03;2.83;;;;;;;;;;5057657;28;20430;-81
2023/04/28 13:32:59;;;;;;;3.30;3.00;;;;;;;;;;5041192;28;20415;-80
2023/04/28 13:35:26;;;;;;;2.53;2.33;;;;;;;;;;5057486;28;20434;-85
2023/04/28 13:38:00;;;;;;;2.77;2.23;;;;;;;;;;5075596;28;20403;-92
2023/04/28 13:40:26;;;;;;;3.20;2.60;;;;;;;;;;5042340;28;20852;-82
2023/04/28 13:42:52;;;;;;;2.10;1.90;;;;;;;;;;5075431;28;20473;-80
2023/04/28 13:45:18;;;;;;;1.50;1.40;;;;;;;;;;5057020;28;20466;-81
2023/04/28 13:47:44;;;;;;;2.30;2.10;;;;;;;;;;5057373;28;20408;-81
2023/04/28 13:50:10;;;;;;;1.57;1.30;;;;;;;;;;5057222;28;20423;-81
2023/04/28 13:52:36;;;;;;;1.60;1.50;;;;;;;;;;5075121;28;20410;-82
2023/04/28 13:55:02;;;;;;;2.13;1.20;;;;;;;;;;5057001;28;20498;-85
2023/04/28 13:57:28;;;;;;;1.53;1.27;;;;;;;;;;5056719;28;20408;-80
2023/04/28 13:59:54;;;;;;;4.30;1.20;;;;;;;;;;5074468;28;20422;-81
2023/04/28 14:02:20;;;;;;;2.07;1.27;;;;;;;;;;5040340;28;20419;-80
2023/04/28 14:04:49;;;;;;;2.13;1.20;;;;;;;;;;5056899;28;20987;-80
2023/04/28 14:07:15;;;;;;;1.73;1.10;;;;;;;;;;5056869;28;20460;-79
2023/04/28 14:09:40;;;;;;;2.00;1.10;;;;;;;;;;5056036;28;20502;-80
2023/04/28 14:12:07;;;;;;;1.40;1.30;;;;;;;;;;5072807;28;20418;-81
2023/04/28 14:14:33;;;;;;;2.40;1.27;;;;;;;;;;5055497;28;20386;-81
2023/04/28 14:16:59;;;;;;;1.50;1.30;;;;;;;;;;5039804;28;20444;-80
2023/04/28 14:19:26;;;;;;;1.37;1.00;;;;;;;;;;5055980;28;20412;-80
2023/04/28 14:21:55;;;;;;;1.27;0.90;;;;;;;;;;5056898;28;20513;-80
2023/04/28 14:24:21;;;;;;;1.97;1.00;;;;;;;;;;5056510;28;20462;-81
2023/04/28 14:26:48;;;;;;;0.90;0.80;;;;;;;;;;5057095;28;20435;-80
2023/04/28 14:29:15;;;;;;;1.90;1.10;;;;;;;;;;5074298;28;20419;-80
2023/04/28 14:31:41;;;;;;;2.93;1.10;;;;;;;;;;5056584;28;20773;-80
2023/04/28 14:34:07;;;;;;;2.03;1.10;;;;;;;;;;5074574;28;20553;-80
2023/04/28 14:36:33;;;;;;;1.50;1.40;;;;;;;;;;5056246;28;20510;-80
2023/04/28 14:39:00;;;;;;;1.50;1.40;;;;;;;;;;5056331;28;20390;-79
2023/04/28 14:41:26;;;;;;;2.53;1.40;;;;;;;;;;5074230;28;20730;-80
2023/04/28 14:43:52;;;;;;;2.07;1.00;;;;;;;;;;5056879;28;20400;-80
2023/04/28 14:46:21;;;;;;;1.60;1.07;;;;;;;;;;5074166;28;20447;-79
2023/04/28 14:48:47;;;;;;;1.40;1.03;;;;;;;;;;5040441;28;20423;-80
2023/04/28 14:51:13;;;;;;;4.60;1.27;;;;;;;;;;5074317;28;20404;-79
2023/04/28 14:53:39;;;;;;;1.20;1.00;;;;;;;;;;5055846;28;20423;-79
2023/04/28 14:56:06;;;;;;;1.37;0.93;;;;;;;;;;5017362;28;20475;-80
2023/04/28 14:58:32;;;;;;;1.77;1.60;;;;;;;;;;5011915;28;20975;-80
2023/04/28 15:00:58;;;;;;;1.27;1.17;;;;;;;;;;5054488;28;20459;-80
2023/04/28 15:03:24;;;;;;;1.37;1.27;;;;;;;;;;5053771;28;20458;-78
2023/04/28 15:05:52;;;;;;;1.27;1.10;;;;;;;;;;5010103;28;20439;-80
2023/04/28 15:08:18;;;;;;;1.43;1.23;;;;;;;;;;5034346;28;20440;-79
2023/04/28 15:10:44;;;;;;;1.70;1.60;;;;;;;;;;5015657;28;20406;-80